createdAt,value
2023-06-16T00:01:27.323Z,6.00
2023-06-16T00:03:55.014Z,5.57
2023-06-16T00:06:28.877Z,5.57
2023-06-16T00:08:58.642Z,5.20
2023-06-16T00:11:28.855Z,5.85
2023-06-16T00:13:58.071Z,5.40
2023-06-16T00:16:27.444Z,5.43
2023-06-16T00:19:01.053Z,5.75
2023-06-16T00:21:40.067Z,5.55
2023-06-16T00:24:11.082Z,4.68
2023-06-16T00:26:39.262Z,4.60
2023-06-16T00:29:09.065Z,5.95
2023-06-16T00:31:36.950Z,4.18
2023-06-16T00:34:04.574Z,6.18
2023-06-16T00:36:31.820Z,5.45
2023-06-16T00:38:59.107Z,5.55
2023-06-16T00:41:26.385Z,5.50
2023-06-16T00:43:56.657Z,5.43
2023-06-16T00:46:36.077Z,5.65
2023-06-16T00:49:04.238Z,4.53
2023-06-16T00:51:31.994Z,4.53
2023-06-16T00:54:01.356Z,5.88
2023-06-16T00:56:29.468Z,5.15
2023-06-16T00:58:59.577Z,4.95
2023-06-16T01:01:31.962Z,4.57
2023-06-16T01:03:59.875Z,5.40
2023-06-16T01:07:10.729Z,6.03
2023-06-16T01:10:23.667Z,6.57
2023-06-16T01:13:13.073Z,6.53
2023-06-16T01:15:45.539Z,5.65
2023-06-16T01:18:18.994Z,6.63
2023-06-16T01:21:10.961Z,6.13
2023-06-16T01:24:07.362Z,4.68
2023-06-16T01:26:48.007Z,5.53
2023-06-16T01:29:16.245Z,5.63
2023-06-16T01:31:46.227Z,5.40
2023-06-16T01:34:15.553Z,6.10
2023-06-16T01:36:45.418Z,5.30
2023-06-16T01:39:16.049Z,5.65
2023-06-16T01:41:44.900Z,5.47
2023-06-16T01:44:12.769Z,5.45
2023-06-16T01:46:42.657Z,5.70
2023-06-16T01:49:12.976Z,4.80
2023-06-16T01:51:40.730Z,5.72
2023-06-16T01:54:08.120Z,5.60
2023-06-16T01:56:35.613Z,5.03
2023-06-16T01:59:03.303Z,5.35
2023-06-16T02:01:41.404Z,5.57
2023-06-16T02:04:21.742Z,5.35
2023-06-16T02:07:09.902Z,6.57
2023-06-16T02:09:41.179Z,7.10
2023-06-16T02:12:12.685Z,5.95
2023-06-16T02:14:42.176Z,5.95
2023-06-16T02:17:16.498Z,5.97
2023-06-16T02:19:44.473Z,5.82
2023-06-16T02:22:12.103Z,6.57
2023-06-16T02:24:39.665Z,5.88
2023-06-16T02:27:07.345Z,5.78
2023-06-16T02:29:34.588Z,5.85
2023-06-16T02:32:01.905Z,5.50
2023-06-16T02:34:29.221Z,6.78
2023-06-16T02:36:57.659Z,5.93
2023-06-16T02:39:25.562Z,5.90
2023-06-16T02:41:52.908Z,5.18
2023-06-16T02:44:20.395Z,5.13
2023-06-16T02:46:47.745Z,5.85
2023-06-16T02:49:17.263Z,5.57
2023-06-16T02:51:44.945Z,6.10
2023-06-16T02:54:12.825Z,6.13
2023-06-16T02:56:40.055Z,5.90
2023-06-16T02:59:07.342Z,6.90
2023-06-16T03:01:35.019Z,5.78
2023-06-16T03:04:25.562Z,5.93
2023-06-16T03:07:03.694Z,5.88
2023-06-16T03:09:35.102Z,6.38
2023-06-16T03:12:06.193Z,5.30
2023-06-16T03:14:37.240Z,5.80
2023-06-16T03:17:15.028Z,5.93
2023-06-16T03:19:43.450Z,6.47
2023-06-16T03:22:12.369Z,5.78
2023-06-16T03:24:45.468Z,4.88
2023-06-16T03:27:16.508Z,6.82
2023-06-16T03:30:04.464Z,5.88
2023-06-16T03:32:49.133Z,6.28
2023-06-16T03:35:18.937Z,6.18
2023-06-16T03:37:47.422Z,5.20
2023-06-16T03:40:15.719Z,5.38
2023-06-16T03:42:43.104Z,6.53
2023-06-16T03:45:12.666Z,6.95
2023-06-16T03:47:39.979Z,6.75
2023-06-16T03:50:08.135Z,6.38
2023-06-16T03:52:37.153Z,7.90
2023-06-16T03:55:04.922Z,6.53
2023-06-16T03:57:32.414Z,7.53
2023-06-16T04:00:01.325Z,6.38
2023-06-16T04:02:29.082Z,6.28
2023-06-16T04:04:57.764Z,6.30
2023-06-16T04:07:26.373Z,6.30
2023-06-16T04:09:53.771Z,5.65
2023-06-16T04:12:21.613Z,7.10
2023-06-16T04:14:49.352Z,7.55
2023-06-16T04:17:16.666Z,7.38
2023-06-16T04:19:47.279Z,7.00
2023-06-16T04:22:14.808Z,6.18
2023-06-16T04:24:50.553Z,7.15
2023-06-16T04:27:24.057Z,6.90
2023-06-16T04:29:53.450Z,7.70
2023-06-16T04:32:23.841Z,7.30
2023-06-16T04:34:53.578Z,8.13
2023-06-16T04:37:21.966Z,9.63
2023-06-16T04:39:49.449Z,9.60
2023-06-16T04:42:20.644Z,9.52
2023-06-16T04:44:48.551Z,9.63
2023-06-16T04:47:17.049Z,8.82
2023-06-16T04:49:45.434Z,9.05
2023-06-16T04:52:13.216Z,10.25
2023-06-16T04:54:41.553Z,10.00
2023-06-16T04:57:10.669Z,10.10
2023-06-16T04:59:37.983Z,9.65
2023-06-16T05:02:16.933Z,8.93
2023-06-16T05:04:45.062Z,10.15
2023-06-16T05:07:15.171Z,9.38
2023-06-16T05:09:42.751Z,9.73
2023-06-16T05:12:11.229Z,10.30
2023-06-16T05:14:38.593Z,10.07
2023-06-16T05:17:09.433Z,9.88
2023-06-16T05:19:37.849Z,9.27
2023-06-16T05:22:05.739Z,10.82
2023-06-16T05:24:33.718Z,8.80
2023-06-16T05:27:03.236Z,10.02
2023-06-16T05:29:30.586Z,9.38
2023-06-16T05:31:59.268Z,9.65
2023-06-16T05:34:27.443Z,8.60
2023-06-16T05:36:55.054Z,9.43
2023-06-16T05:39:24.736Z,9.10
2023-06-16T05:41:52.972Z,9.45
2023-06-16T05:44:20.572Z,10.15
2023-06-16T05:46:48.530Z,9.07
2023-06-16T05:49:18.284Z,6.90
2023-06-16T05:51:45.979Z,8.70
2023-06-16T05:54:13.273Z,7.75
2023-06-16T05:56:40.672Z,8.27
2023-06-16T05:59:08.049Z,8.18
2023-06-16T06:01:35.611Z,7.47
2023-06-16T06:04:03.893Z,9.40
2023-06-16T06:06:31.714Z,8.60
2023-06-16T06:09:00.200Z,7.72
2023-06-16T06:11:27.674Z,7.93
2023-06-16T06:13:54.941Z,8.02
2023-06-16T06:16:23.321Z,8.50
2023-06-16T06:18:51.396Z,7.47
2023-06-16T06:21:18.737Z,7.03
2023-06-16T06:23:46.268Z,6.72
2023-06-16T06:26:13.637Z,6.88
2023-06-16T06:28:41.050Z,7.07
2023-06-16T06:31:09.405Z,7.85
2023-06-16T06:33:36.806Z,7.38
2023-06-16T06:36:04.838Z,6.80
2023-06-16T06:38:32.323Z,9.00
2023-06-16T06:41:01.692Z,8.02
2023-06-16T06:43:29.361Z,6.70
2023-06-16T06:46:06.926Z,7.18
2023-06-16T06:48:41.285Z,6.53
2023-06-16T06:51:11.823Z,6.95
2023-06-16T06:53:39.280Z,5.85
2023-06-16T06:56:06.715Z,5.55
2023-06-16T06:58:37.062Z,5.70
2023-06-16T07:01:04.327Z,5.35
2023-06-16T07:03:32.564Z,5.82
2023-06-16T07:06:00.944Z,6.50
2023-06-16T07:08:28.261Z,5.43
2023-06-16T07:10:55.788Z,4.93
2023-06-16T07:13:23.118Z,5.25
2023-06-16T07:15:50.673Z,5.45
2023-06-16T07:18:18.001Z,6.22
2023-06-16T07:20:45.479Z,5.75
2023-06-16T07:23:12.840Z,5.88
2023-06-16T07:25:43.076Z,5.32
2023-06-16T07:28:11.166Z,6.57
2023-06-16T07:30:38.538Z,6.10
2023-06-16T07:33:07.398Z,6.13
2023-06-16T07:35:34.731Z,4.97
2023-06-16T07:38:02.059Z,6.05
2023-06-16T07:40:29.382Z,5.70
2023-06-16T07:42:56.689Z,5.00
2023-06-16T07:45:24.149Z,4.18
2023-06-16T07:47:51.517Z,4.68
2023-06-16T07:50:19.117Z,4.68
2023-06-16T07:52:46.811Z,5.28
2023-06-16T07:55:14.140Z,4.78
2023-06-16T07:57:41.595Z,6.28
2023-06-16T08:00:16.208Z,5.57
2023-06-16T08:02:43.926Z,6.30
2023-06-16T08:05:13.351Z,6.47
2023-06-16T08:07:40.729Z,5.85
2023-06-16T08:10:08.609Z,5.90
2023-06-16T08:12:35.878Z,5.93
2023-06-16T08:15:05.837Z,5.80
2023-06-16T08:17:33.864Z,4.88
2023-06-16T08:20:01.406Z,5.20
2023-06-16T08:22:28.752Z,5.97
2023-06-16T08:24:56.678Z,5.25
2023-06-16T08:27:23.957Z,4.80
2023-06-16T08:29:51.482Z,4.90
2023-06-16T08:32:18.843Z,5.25
2023-06-16T08:34:46.146Z,5.10
2023-06-16T08:37:29.050Z,5.05
2023-06-16T08:39:57.580Z,6.07
2023-06-16T08:42:25.390Z,5.82
2023-06-16T08:44:58.699Z,5.47
2023-06-16T08:47:27.899Z,5.30
2023-06-16T08:49:55.976Z,5.30
2023-06-16T08:52:38.768Z,5.28
2023-06-16T08:55:16.725Z,4.95
2023-06-16T08:57:53.736Z,5.50
2023-06-16T09:00:23.115Z,5.60
2023-06-16T09:02:51.944Z,4.97
2023-06-16T09:05:20.319Z,4.93
2023-06-16T09:07:48.720Z,5.05
2023-06-16T09:10:17.929Z,5.07
2023-06-16T09:12:53.580Z,5.00
2023-06-16T09:15:22.384Z,4.65
2023-06-16T09:17:51.026Z,4.65
2023-06-16T09:20:24.680Z,4.18
2023-06-16T09:23:02.159Z,4.93
2023-06-16T09:25:34.662Z,4.70
2023-06-16T09:28:11.389Z,4.90
2023-06-16T09:30:42.423Z,4.03
2023-06-16T09:33:12.803Z,4.90
2023-06-16T09:35:44.423Z,4.90
2023-06-16T09:38:12.428Z,5.05
2023-06-16T09:40:40.257Z,4.78
2023-06-16T09:43:10.838Z,5.15
2023-06-16T09:45:39.158Z,4.97
2023-06-16T09:48:11.332Z,5.18
2023-06-16T09:50:41.570Z,4.78
2023-06-16T09:53:10.718Z,5.25
2023-06-16T09:55:42.320Z,5.35
2023-06-16T09:58:09.868Z,5.85
2023-06-16T10:00:37.269Z,5.03
2023-06-16T10:03:11.079Z,4.57
2023-06-16T10:05:41.788Z,4.40
2023-06-16T10:08:09.397Z,5.10
2023-06-16T10:10:43.865Z,4.57
2023-06-16T10:13:12.856Z,4.60
2023-06-16T10:15:42.715Z,5.28
2023-06-16T10:18:15.605Z,5.68
2023-06-16T10:20:43.732Z,5.30
2023-06-16T10:23:12.137Z,5.05
2023-06-16T10:25:41.525Z,6.25
2023-06-16T10:28:14.732Z,5.18
2023-06-16T10:30:45.369Z,4.93
2023-06-16T10:33:56.880Z,5.03
2023-06-16T10:36:32.997Z,5.05
2023-06-16T10:39:08.349Z,5.10
2023-06-16T10:41:50.684Z,5.95
2023-06-16T10:44:34.349Z,5.38
2023-06-16T10:47:11.415Z,5.60
2023-06-16T10:49:56.873Z,4.93
2023-06-16T10:52:30.095Z,5.50
2023-06-16T10:55:00.105Z,6.18
2023-06-16T10:57:27.486Z,5.85
2023-06-16T11:00:14.386Z,4.60
2023-06-16T11:02:56.040Z,4.95
2023-06-16T11:05:24.423Z,4.85
2023-06-16T11:08:07.312Z,4.93
2023-06-16T11:11:04.364Z,5.93
2023-06-16T11:13:40.383Z,4.70
2023-06-16T11:16:09.065Z,5.47
2023-06-16T11:18:39.487Z,5.20
2023-06-16T11:21:12.676Z,4.60
2023-06-16T11:23:40.534Z,5.20
2023-06-16T11:26:16.345Z,4.68
2023-06-16T11:28:44.916Z,4.72
2023-06-16T11:31:14.583Z,4.60
2023-06-16T11:33:42.433Z,5.38
2023-06-16T11:36:24.872Z,5.60
2023-06-16T11:38:58.221Z,5.85
2023-06-16T11:41:31.054Z,4.78
2023-06-16T11:43:59.842Z,5.72
2023-06-16T11:46:34.212Z,5.57
2023-06-16T11:49:03.584Z,5.10
2023-06-16T11:51:31.884Z,5.15
2023-06-16T11:54:00.214Z,5.25
2023-06-16T11:56:28.632Z,5.03
2023-06-16T11:58:56.264Z,5.43
2023-06-16T12:01:27.186Z,5.25
2023-06-16T12:04:05.724Z,5.63
2023-06-16T12:06:38.214Z,6.15
2023-06-16T12:09:05.814Z,5.55
2023-06-16T12:11:36.293Z,5.20
2023-06-16T12:14:04.117Z,5.80
2023-06-16T12:16:33.350Z,6.18
2023-06-16T12:19:01.020Z,5.30
2023-06-16T12:21:30.537Z,5.38
2023-06-16T12:24:03.608Z,4.80
2023-06-16T12:26:42.706Z,5.70
2023-06-16T12:29:14.179Z,6.20
2023-06-16T12:32:11.267Z,5.15
2023-06-16T12:34:38.639Z,5.75
2023-06-16T12:37:14.704Z,5.80
2023-06-16T12:39:42.337Z,5.47
2023-06-16T12:42:12.342Z,5.25
2023-06-16T12:44:46.578Z,6.03
2023-06-16T12:47:17.331Z,5.72
2023-06-16T12:49:45.291Z,4.93
2023-06-16T12:52:16.180Z,5.40
2023-06-16T12:54:44.753Z,5.55
2023-06-16T12:57:14.615Z,5.28
2023-06-16T12:59:43.223Z,5.10
2023-06-16T13:02:11.412Z,4.60
2023-06-16T13:04:39.315Z,5.45
2023-06-16T13:07:07.303Z,5.45
2023-06-16T13:09:34.740Z,5.70
2023-06-16T13:12:03.645Z,5.20
2023-06-16T13:14:31.291Z,5.30
2023-06-16T13:16:58.617Z,5.40
2023-06-16T13:19:26.133Z,5.20
2023-06-16T13:21:53.778Z,5.20
2023-06-16T13:24:21.393Z,5.75
2023-06-16T13:26:48.758Z,4.70
2023-06-16T13:29:16.306Z,5.53
2023-06-16T13:31:43.912Z,5.50
2023-06-16T13:34:14.120Z,5.18
2023-06-16T13:36:43.419Z,5.63
2023-06-16T13:39:11.284Z,5.32
2023-06-16T13:41:38.550Z,5.05
2023-06-16T13:44:06.021Z,5.75
2023-06-16T13:46:33.462Z,5.43
2023-06-16T13:49:00.820Z,4.97
2023-06-16T13:51:28.057Z,5.43
2023-06-16T13:53:55.343Z,5.53
2023-06-16T13:56:22.724Z,5.25
2023-06-16T13:58:50.089Z,5.07
2023-06-16T14:01:17.414Z,5.70
2023-06-16T14:03:44.788Z,6.00
2023-06-16T14:06:14.194Z,4.78
2023-06-16T14:08:41.515Z,5.15
2023-06-16T14:11:09.021Z,5.50
2023-06-16T14:13:36.671Z,5.30
2023-06-16T14:16:04.883Z,5.22
2023-06-16T14:18:32.153Z,4.88
2023-06-16T14:20:59.410Z,5.03
2023-06-16T14:23:26.622Z,5.38
2023-06-16T14:25:54.024Z,4.75
2023-06-16T14:28:21.245Z,5.63
2023-06-16T14:30:48.610Z,5.45
2023-06-16T14:33:16.486Z,5.30
2023-06-16T14:35:43.822Z,5.60
2023-06-16T14:38:11.337Z,5.75
2023-06-16T14:40:38.749Z,5.28
2023-06-16T14:43:06.690Z,5.28
2023-06-16T14:45:34.086Z,5.45
2023-06-16T14:48:01.877Z,5.50
2023-06-16T14:50:29.801Z,5.47
2023-06-16T14:52:57.071Z,5.50
2023-06-16T14:55:26.702Z,5.50
2023-06-16T14:57:54.454Z,5.72
2023-06-16T15:00:22.312Z,5.28
2023-06-16T15:02:49.949Z,5.65
2023-06-16T15:05:18.839Z,5.55
2023-06-16T15:07:46.431Z,6.38
2023-06-16T15:10:13.764Z,5.55
2023-06-16T15:12:41.090Z,5.80
2023-06-16T15:15:09.848Z,6.05
2023-06-16T15:17:37.188Z,5.85
2023-06-16T15:20:06.969Z,5.97
2023-06-16T15:22:34.414Z,5.82
2023-06-16T15:25:01.723Z,6.47
2023-06-16T15:27:29.016Z,5.78
2023-06-16T15:29:56.272Z,5.95
2023-06-16T15:32:23.577Z,6.00
2023-06-16T15:34:51.008Z,4.93
2023-06-16T15:37:18.335Z,5.70
2023-06-16T15:39:45.792Z,5.43
2023-06-16T15:42:13.158Z,5.72
2023-06-16T15:44:41.498Z,5.72
2023-06-16T15:47:08.940Z,5.75
2023-06-16T15:49:36.807Z,6.00
2023-06-16T15:52:04.740Z,5.32
2023-06-16T15:54:32.054Z,5.88
2023-06-16T15:57:01.035Z,7.82
2023-06-16T15:59:28.303Z,5.63
2023-06-16T16:01:56.914Z,4.60
2023-06-16T16:04:24.586Z,5.43
2023-06-16T16:06:51.932Z,5.45
2023-06-16T16:09:19.248Z,5.57
2023-06-16T16:11:46.629Z,5.47
2023-06-16T16:14:14.070Z,6.25
2023-06-16T16:16:41.413Z,5.45
2023-06-16T16:19:08.723Z,5.63
2023-06-16T16:21:36.038Z,5.03
2023-06-16T16:24:03.656Z,5.85
2023-06-16T16:26:30.924Z,5.60
2023-06-16T16:28:59.131Z,4.95
2023-06-16T16:31:26.435Z,5.72
2023-06-16T16:33:54.060Z,4.97
2023-06-16T16:36:21.324Z,5.55
2023-06-16T16:38:48.822Z,5.20
2023-06-16T16:41:16.435Z,5.30
2023-06-16T16:43:44.168Z,4.95
2023-06-16T16:46:11.594Z,5.78
2023-06-16T16:48:39.207Z,5.55
2023-06-16T16:51:06.641Z,5.45
2023-06-16T16:53:34.106Z,5.45
2023-06-16T16:56:01.501Z,5.40
2023-06-16T16:58:28.787Z,5.55
2023-06-16T17:00:56.067Z,5.40
2023-06-16T17:03:23.457Z,4.88
2023-06-16T17:05:51.493Z,5.53
2023-06-16T17:08:19.127Z,4.65
2023-06-16T17:10:46.543Z,5.03
2023-06-16T17:13:13.951Z,4.63
2023-06-16T17:15:42.485Z,4.97
2023-06-16T17:18:09.921Z,4.82
2023-06-16T17:20:37.193Z,5.35
2023-06-16T17:23:05.854Z,5.13
2023-06-16T17:25:33.763Z,4.75
2023-06-16T17:28:01.260Z,4.30
2023-06-16T17:30:29.266Z,4.38
2023-06-16T17:33:00.008Z,4.72
2023-06-16T17:35:31.189Z,5.30
2023-06-16T17:37:59.942Z,4.40
2023-06-16T17:40:35.228Z,5.10
2023-06-16T17:43:04.989Z,5.00
2023-06-16T17:45:36.386Z,4.60
2023-06-16T17:48:03.953Z,4.82
2023-06-16T17:50:31.355Z,4.45
2023-06-16T17:52:59.921Z,4.13
2023-06-16T17:55:27.672Z,4.70
2023-06-16T17:57:55.001Z,4.75
2023-06-16T18:00:22.849Z,4.15
2023-06-16T18:02:50.674Z,4.07
2023-06-16T18:05:19.643Z,4.50
2023-06-16T18:07:48.064Z,4.85
2023-06-16T18:10:15.684Z,4.20
2023-06-16T18:12:43.061Z,5.13
2023-06-16T18:15:11.627Z,4.78
2023-06-16T18:17:38.997Z,4.93
2023-06-16T18:20:07.195Z,4.30
2023-06-16T18:22:34.506Z,5.03
2023-06-16T18:25:02.102Z,4.30
2023-06-16T18:27:29.418Z,3.53
2023-06-16T18:29:56.918Z,4.15
2023-06-16T18:32:24.287Z,4.28
2023-06-16T18:34:51.643Z,3.83
2023-06-16T18:37:18.936Z,4.13
2023-06-16T18:39:46.255Z,3.20
2023-06-16T18:42:13.554Z,4.00
2023-06-16T18:44:40.895Z,4.68
2023-06-16T18:47:10.262Z,4.88
2023-06-16T18:49:37.734Z,3.58
2023-06-16T18:52:05.654Z,3.80
2023-06-16T18:54:32.958Z,3.45
2023-06-16T18:57:00.553Z,4.30
2023-06-16T18:59:29.631Z,3.90
2023-06-16T19:01:57.708Z,3.92
2023-06-16T19:04:25.188Z,3.58
2023-06-16T19:06:52.559Z,3.80
2023-06-16T19:09:19.843Z,3.63
2023-06-16T19:11:47.323Z,3.30
2023-06-16T19:14:14.623Z,3.55
2023-06-16T19:16:41.997Z,4.20
2023-06-16T19:19:09.319Z,4.03
2023-06-16T19:21:36.597Z,3.53
2023-06-16T19:24:04.422Z,4.65
2023-06-16T19:26:31.720Z,4.40
2023-06-16T19:28:59.081Z,3.67
2023-06-16T19:31:30.448Z,4.70
2023-06-16T19:33:59.395Z,2.55
2023-06-16T19:36:26.845Z,3.50
2023-06-16T19:38:54.664Z,3.65
2023-06-16T19:41:25.456Z,3.75
2023-06-16T19:43:52.889Z,3.53
2023-06-16T19:46:20.382Z,5.00
2023-06-16T19:48:47.697Z,3.90
2023-06-16T19:51:15.131Z,4.28
2023-06-16T19:53:42.458Z,3.45
2023-06-16T19:56:09.767Z,3.67
2023-06-16T19:58:37.044Z,3.83
2023-06-16T20:01:04.459Z,4.00
2023-06-16T20:03:32.033Z,3.75
2023-06-16T20:05:59.335Z,4.05
2023-06-16T20:08:26.622Z,3.95
2023-06-16T20:10:54.859Z,3.63
2023-06-16T20:13:22.485Z,3.45
2023-06-16T20:15:49.982Z,4.07
2023-06-16T20:18:17.248Z,3.55
2023-06-16T20:20:50.050Z,4.50
2023-06-16T20:23:18.712Z,3.63
2023-06-16T20:25:46.243Z,5.00
2023-06-16T20:28:13.787Z,4.50
2023-06-16T20:30:44.883Z,5.22
2023-06-16T20:33:12.519Z,5.43
2023-06-16T20:35:40.006Z,3.97
2023-06-16T20:38:07.317Z,5.03
2023-06-16T20:40:34.857Z,4.50
2023-06-16T20:43:03.986Z,4.70
2023-06-16T20:45:32.718Z,3.38
2023-06-16T20:48:00.177Z,6.63
2023-06-16T20:50:28.473Z,5.07
2023-06-16T20:52:56.118Z,4.28
2023-06-16T20:55:24.831Z,4.50
2023-06-16T20:57:56.240Z,4.55
2023-06-16T21:00:28.765Z,4.85
2023-06-16T21:02:56.667Z,5.13
2023-06-16T21:05:24.411Z,5.45
2023-06-16T21:07:53.759Z,4.63
2023-06-16T21:10:21.308Z,5.57
2023-06-16T21:12:49.056Z,4.88
2023-06-16T21:15:20.741Z,5.22
2023-06-16T21:17:50.118Z,5.47
2023-06-16T21:20:19.568Z,5.70
2023-06-16T21:22:51.918Z,5.90
2023-06-16T21:25:19.774Z,5.78
2023-06-16T21:27:47.484Z,6.03
2023-06-16T21:30:15.067Z,5.25
2023-06-16T21:32:42.399Z,5.93
2023-06-16T21:35:11.557Z,5.22
2023-06-16T21:37:39.285Z,5.30
2023-06-16T21:40:08.393Z,5.85
2023-06-16T21:42:43.321Z,5.40
2023-06-16T21:45:14.679Z,5.15
2023-06-16T21:47:42.599Z,5.35
2023-06-16T21:50:10.612Z,5.45
2023-06-16T21:52:38.305Z,5.28
2023-06-16T21:55:07.024Z,5.43
2023-06-16T21:57:36.331Z,5.65
2023-06-16T22:00:09.908Z,5.20
2023-06-16T22:02:37.626Z,5.65
2023-06-16T22:05:08.453Z,4.85
2023-06-16T22:07:43.175Z,4.70
2023-06-16T22:10:12.251Z,5.82
2023-06-16T22:12:39.640Z,5.25
2023-06-16T22:15:08.762Z,4.70
2023-06-16T22:17:36.717Z,5.15
2023-06-16T22:20:09.366Z,5.78
2023-06-16T22:22:36.615Z,5.00
2023-06-16T22:25:04.660Z,5.55
2023-06-16T22:27:33.150Z,4.72
2023-06-16T22:30:00.671Z,5.18
2023-06-16T22:32:29.290Z,4.82
2023-06-16T22:34:56.670Z,5.65
2023-06-16T22:37:23.909Z,5.43
2023-06-16T22:39:52.193Z,4.95
2023-06-16T22:42:19.629Z,5.28
2023-06-16T22:44:46.886Z,5.68
2023-06-16T22:47:14.174Z,5.38
2023-06-16T22:49:41.472Z,6.68
2023-06-16T22:52:09.417Z,5.00
2023-06-16T22:54:37.463Z,5.75
2023-06-16T22:57:06.410Z,5.65
2023-06-16T22:59:33.970Z,5.68
2023-06-16T23:02:01.685Z,5.88
2023-06-16T23:04:29.196Z,6.53
2023-06-16T23:06:56.691Z,6.30
2023-06-16T23:09:24.080Z,7.20
2023-06-16T23:11:51.394Z,5.78
2023-06-16T23:14:19.802Z,5.57
2023-06-16T23:16:47.835Z,6.82
2023-06-16T23:19:16.147Z,5.20
2023-06-16T23:21:44.228Z,5.75
2023-06-16T23:24:12.171Z,5.57
2023-06-16T23:26:47.046Z,5.85
2023-06-16T23:29:17.282Z,5.32
2023-06-16T23:31:46.410Z,5.45
2023-06-16T23:34:15.457Z,5.35
2023-06-16T23:36:42.853Z,5.25
2023-06-16T23:39:11.696Z,5.32
2023-06-16T23:41:39.190Z,6.05
2023-06-16T23:44:06.456Z,5.90
2023-06-16T23:46:33.870Z,5.78
2023-06-16T23:49:01.674Z,6.55
2023-06-16T23:51:29.230Z,5.10
2023-06-16T23:53:56.959Z,5.20
2023-06-16T23:56:24.325Z,5.18
2023-06-16T23:58:53.481Z,4.93
